Time;durP1;ratioP1;P1;durP2;ratioP2;P2;SDS_P1;SDS_P2;PMS_P1;PMS_P2;Temp;Humidity;BMP_temperature;BMP_pressure;BME280_temperature;BME280_humidity;BME280_pressure;Samples;Min_cycle;Max_cycle;Signal;HPM_P1;HPM_P2
2021/07/24 00:01:07;;;;;;;14.67;13.17;;;18.30;99.90;;;;;;6263053;22;20428;-87
2021/07/24 00:03:32;;;;;;;15.37;13.97;;;18.30;99.90;;;;;;6262936;22;20393;-87
2021/07/24 00:05:58;;;;;;;17.63;14.90;;;18.20;99.90;;;;;;6261604;22;20400;-86
2021/07/24 00:08:24;;;;;;;15.47;13.83;;;18.20;99.90;;;;;;6262520;22;20485;-87
2021/07/24 00:10:49;;;;;;;14.97;13.40;;;18.20;99.90;;;;;;6262893;22;20260;-87
2021/07/24 00:13:16;;;;;;;14.47;13.10;;;18.20;99.90;;;;;;6237211;22;20592;-86
2021/07/24 00:15:41;;;;;;;13.37;12.17;;;18.20;99.90;;;;;;6262228;22;20488;-86
2021/07/24 00:18:07;;;;;;;13.70;12.50;;;18.10;99.90;;;;;;6261574;22;20412;-86
2021/07/24 00:20:33;;;;;;;15.70;13.83;;;18.10;99.90;;;;;;6262032;22;20200;-86
2021/07/24 00:22:58;;;;;;;14.17;12.77;;;18.00;99.90;;;;;;6262284;22;20245;-86
2021/07/24 00:25:24;;;;;;;15.97;14.37;;;17.90;99.90;;;;;;6261569;22;20162;-86
2021/07/24 00:27:50;;;;;;;14.80;13.30;;;17.90;99.90;;;;;;6262469;22;20674;-86
2021/07/24 00:30:16;;;;;;;14.80;13.30;;;17.90;99.90;;;;;;6261453;22;20520;-86
2021/07/24 00:32:41;;;;;;;15.83;13.03;;;17.90;99.90;;;;;;6262951;22;20257;-86
2021/07/24 00:35:08;;;;;;;16.57;14.43;;;17.90;99.90;;;;;;6262574;22;20158;-87
2021/07/24 00:37:33;;;;;;;15.47;13.83;;;17.90;99.90;;;;;;6261800;22;20503;-86
2021/07/24 00:39:59;;;;;;;13.87;12.47;;;18.00;99.90;;;;;;6262225;22;20388;-86
2021/07/24 00:42:26;;;;;;;16.10;14.40;;;17.90;99.90;;;;;;6262505;22;20377;-86
2021/07/24 00:44:57;;;;;;;16.03;14.43;;;17.90;99.90;;;;;;6261363;22;20159;-86
2021/07/24 00:47:43;;;;;;;16.30;14.80;;;17.90;99.90;;;;;;6261763;22;20395;-86
2021/07/24 00:50:13;;;;;;;15.43;13.87;;;17.80;99.90;;;;;;6262598;22;20751;-86
2021/07/24 00:52:42;;;;;;;15.60;14.20;;;17.80;99.90;;;;;;6262092;22;20450;-86
2021/07/24 00:55:14;;;;;;;18.23;14.57;;;17.80;99.90;;;;;;6262389;22;20400;-87
2021/07/24 00:57:41;;;;;;;15.17;13.73;;;17.70;99.90;;;;;;6264331;22;21032;-87
2021/07/24 01:00:11;;;;;;;17.00;15.17;;;17.60;99.90;;;;;;6259977;22;20870;-87
2021/07/24 01:02:37;;;;;;;16.10;14.60;;;17.60;99.90;;;;;;6264590;22;20404;-87
2021/07/24 01:05:05;;;;;;;16.63;15.03;;;17.50;99.90;;;;;;6263461;22;20408;-87
2021/07/24 01:07:37;;;;;;;15.50;13.93;;;17.50;99.90;;;;;;6264483;22;20773;-87
2021/07/24 01:10:04;;;;;;;15.93;14.33;;;17.50;99.90;;;;;;6263254;22;20789;-87
2021/07/24 01:12:33;;;;;;;15.40;13.87;;;17.50;99.90;;;;;;6262538;22;20384;-87
2021/07/24 01:15:00;;;;;;;15.30;13.90;;;17.50;99.90;;;;;;6262988;22;20400;-87
2021/07/24 01:17:29;;;;;;;16.20;14.60;;;;;;;;;;6265629;22;20405;-87
2021/07/24 01:19:55;;;;;;;15.90;14.40;;;;;;;;;;6263117;22;20503;-87
2021/07/24 01:22:21;;;;;;;15.77;14.17;;;;;;;;;;6263372;22;20408;-87
2021/07/24 01:24:47;;;;;;;15.83;14.33;;;;;;;;;;6263260;22;20393;-86
2021/07/24 01:27:13;;;;;;;16.70;15.17;;;;;;;;;;6264204;22;20405;-87
2021/07/24 01:29:39;;;;;;;15.77;14.17;;;;;;;;;;6263124;22;20404;-87
2021/07/24 01:32:14;;;;;;;16.10;14.50;;;;;;;;;;6264924;22;20381;-87
2021/07/24 01:34:40;;;;;;;15.10;13.60;;;;;;;;;;6263912;22;20389;-86
2021/07/24 01:37:06;;;;;;;15.57;14.07;;;;;;;;;;6264768;22;20436;-87
2021/07/24 01:39:32;;;;;;;18.23;14.10;;;;;;;;;;6263116;22;20428;-86
2021/07/24 01:41:58;;;;;;;15.37;13.87;;;;;;;;;;6265473;22;20444;-88
2021/07/24 01:44:25;;;;;;;15.67;14.00;;;;;;;;;;6263671;22;20966;-88
2021/07/24 01:46:52;;;;;;;15.83;14.23;;;;;;;;;;6264367;22;20891;-88
2021/07/24 01:55:14;;;;;;;14.90;13.47;;;;;;;;;;6266445;22;20427;-87
2021/07/24 01:57:51;;;;;;;14.90;13.50;;;17.30;99.90;;;;;;6265666;22;20385;-87
2021/07/24 02:00:23;;;;;;;15.47;13.87;;;17.30;99.90;;;;;;6265129;22;20512;-87
2021/07/24 02:02:52;;;;;;;14.63;13.00;;;17.30;99.90;;;;;;6262264;22;20432;-86
2021/07/24 02:05:43;;;;;;;14.97;13.53;;;17.30;99.90;;;;;;6265266;22;20383;-87
2021/07/24 02:08:11;;;;;;;16.87;15.17;;;17.30;99.90;;;;;;6263484;22;20729;-87
2021/07/24 02:10:42;;;;;;;15.33;13.80;;;17.30;99.90;;;;;;6264596;22;20384;-87
2021/07/24 02:13:09;;;;;;;15.07;13.70;;;17.30;99.90;;;;;;6265444;22;20389;-87
2021/07/24 02:15:34;;;;;;;15.97;14.30;;;17.20;99.90;;;;;;6262773;22;20431;-86
2021/07/24 02:18:01;;;;;;;17.00;14.40;;;17.30;99.90;;;;;;6265175;22;20369;-87
2021/07/24 02:20:28;;;;;;;15.30;13.90;;;17.20;99.90;;;;;;6262117;22;20185;-86
2021/07/24 02:22:55;;;;;;;15.07;13.47;;;17.20;99.90;;;;;;6262702;22;20444;-87
2021/07/24 02:25:21;;;;;;;16.00;13.13;;;17.30;99.90;;;;;;6260926;22;20726;-87
2021/07/24 02:27:48;;;;;;;15.90;14.37;;;17.50;99.90;;;;;;6261717;22;20539;-87
2021/07/24 02:30:15;;;;;;;14.77;13.23;;;17.60;99.90;;;;;;6261968;22;20166;-87
2021/07/24 02:32:42;;;;;;;16.10;14.40;;;17.60;99.90;;;;;;6263140;22;20396;-88
2021/07/24 02:35:09;;;;;;;15.10;13.70;;;17.50;99.90;;;;;;6262752;22;20821;-87
2021/07/24 02:37:35;;;;;;;14.97;13.60;;;17.40;99.90;;;;;;6261857;22;20396;-87
2021/07/24 02:40:00;;;;;;;14.37;13.00;;;17.50;99.90;;;;;;6261767;22;20428;-88
2021/07/24 02:42:26;;;;;;;14.23;12.83;;;17.50;99.90;;;;;;6263534;22;20173;-88
2021/07/24 02:44:52;;;;;;;14.00;12.50;;;17.60;99.90;;;;;;6262454;22;20428;-87
2021/07/24 02:47:18;;;;;;;13.67;12.23;;;17.60;99.90;;;;;;6262897;22;20197;-87
2021/07/24 02:49:44;;;;;;;14.63;13.13;;;17.60;99.90;;;;;;6262278;22;20228;-87
2021/07/24 02:52:10;;;;;;;13.80;12.40;;;17.60;99.90;;;;;;6262372;22;20627;-88
2021/07/24 02:54:36;;;;;;;14.47;12.97;;;17.60;99.90;;;;;;6258934;22;20397;-88
2021/07/24 02:57:02;;;;;;;15.73;14.13;;;17.50;99.90;;;;;;6260999;22;20158;-87
2021/07/24 02:59:28;;;;;;;18.33;16.53;;;17.60;99.90;;;;;;6262082;22;20404;-87
2021/07/24 03:02:21;;;;;;;18.47;16.60;;;17.70;99.90;;;;;;6263309;22;20719;-87
2021/07/24 03:04:47;;;;;;;17.93;16.33;;;17.70;99.90;;;;;;6262052;22;20227;-88
2021/07/24 03:07:13;;;;;;;19.13;17.23;;;17.80;99.90;;;;;;6264355;22;20414;-87
2021/07/24 03:09:38;;;;;;;20.13;18.10;;;17.90;99.90;;;;;;6262309;22;20166;-88
2021/07/24 03:12:04;;;;;;;20.10;17.60;;;18.00;99.90;;;;;;6237624;22;20166;-87
2021/07/24 03:14:31;;;;;;;20.23;18.13;;;17.90;99.90;;;;;;6261707;22;20158;-86
2021/07/24 03:16:57;;;;;;;18.83;16.93;;;17.70;99.90;;;;;;6266542;22;20439;-88
2021/07/24 03:19:23;;;;;;;19.13;17.03;;;17.50;99.90;;;;;;6262162;22;20833;-88
2021/07/24 03:21:48;;;;;;;18.13;16.30;;;17.40;99.90;;;;;;6263663;22;20232;-88
2021/07/24 03:24:14;;;;;;;16.60;15.00;;;17.40;99.90;;;;;;6262292;22;20162;-88
2021/07/24 03:26:40;;;;;;;16.50;14.87;;;17.40;99.90;;;;;;6265462;22;20162;-88
2021/07/24 03:29:07;;;;;;;17.13;15.33;;;17.40;99.90;;;;;;6264262;22;21651;-87
2021/07/24 03:31:33;;;;;;;15.23;13.27;;;17.30;99.90;;;;;;6262955;22;20397;-87
2021/07/24 03:33:59;;;;;;;15.67;14.17;;;17.30;99.90;;;;;;6264461;22;20395;-88
2021/07/24 03:36:27;;;;;;;15.00;13.47;;;17.30;99.90;;;;;;6264834;22;20162;-88
2021/07/24 03:38:56;;;;;;;14.63;13.20;;;17.40;99.90;;;;;;6255758;22;20162;-87
2021/07/24 03:41:21;;;;;;;16.20;14.60;;;17.40;99.90;;;;;;6264262;22;20850;-87
2021/07/24 03:43:47;;;;;;;14.57;13.17;;;17.40;99.90;;;;;;6263183;22;20162;-88
2021/07/24 03:46:24;;;;;;;15.10;13.60;;;17.40;99.90;;;;;;6262709;22;20234;-88
2021/07/24 03:48:50;;;;;;;16.17;14.60;;;17.40;99.90;;;;;;6263363;22;20189;-88
2021/07/24 03:51:19;;;;;;;15.00;13.50;;;17.40;99.90;;;;;;6263891;22;20688;-89
2021/07/24 03:53:45;;;;;;;15.43;14.03;;;17.40;99.90;;;;;;6262344;22;20193;-88
2021/07/24 03:56:21;;;;;;;16.73;15.03;;;17.40;99.90;;;;;;6263463;22;20867;-89
2021/07/24 03:58:49;;;;;;;17.53;15.23;;;17.60;99.90;;;;;;6263106;22;20397;-87
2021/07/24 04:01:23;;;;;;;18.97;16.67;;;17.80;99.90;;;;;;6263046;22;20468;-89
2021/07/24 04:03:49;;;;;;;18.13;15.60;;;17.90;99.90;;;;;;6263432;22;20503;-86
2021/07/24 04:06:30;;;;;;;17.90;16.20;;;18.00;99.90;;;;;;6263021;22;20791;-89
2021/07/24 04:08:57;;;;;;;19.83;17.60;;;17.80;99.90;;;;;;6262480;22;20666;-89
2021/07/24 04:11:25;;;;;;;22.80;18.07;;;17.70;99.90;;;;;;6263113;22;20739;-88
2021/07/24 04:13:50;;;;;;;18.70;16.80;;;17.60;99.90;;;;;;6237670;22;20412;-87
2021/07/24 04:16:16;;;;;;;18.23;16.33;;;17.60;99.90;;;;;;6263834;22;20389;-87
2021/07/24 04:18:42;;;;;;;20.43;15.97;;;17.70;99.90;;;;;;6263155;22;20487;-87
2021/07/24 04:21:08;;;;;;;18.40;15.80;;;17.80;99.90;;;;;;6265128;22;20194;-87
2021/07/24 04:23:34;;;;;;;18.17;16.30;;;18.00;99.90;;;;;;6265252;22;20242;-87
2021/07/24 04:25:59;;;;;;;18.40;16.50;;;18.00;99.90;;;;;;6263159;22;20166;-86
2021/07/24 04:28:25;;;;;;;18.60;16.80;;;18.00;99.90;;;;;;6263429;22;20162;-88
2021/07/24 04:30:51;;;;;;;16.43;14.73;;;17.90;99.90;;;;;;6263564;22;20162;-87
2021/07/24 04:33:17;;;;;;;16.60;15.10;;;17.90;99.90;;;;;;6265736;22;20265;-88
2021/07/24 04:38:40;;;;;;;18.10;16.20;;;18.00;99.90;;;;;;6265074;22;20393;-87
2021/07/24 04:41:05;;;;;;;17.07;15.37;;;17.90;99.90;;;;;;6264213;22;20622;-87
2021/07/24 04:43:31;;;;;;;17.90;16.10;;;17.90;99.90;;;;;;6239975;22;20777;-89
2021/07/24 04:45:57;;;;;;;17.97;16.10;;;17.80;99.90;;;;;;6265269;22;20158;-87
2021/07/24 04:48:22;;;;;;;16.80;15.20;;;17.70;99.90;;;;;;6263884;22;20219;-87
2021/07/24 04:50:52;;;;;;;15.77;14.27;;;17.80;99.90;;;;;;6264628;22;20497;-89
2021/07/24 04:53:19;;;;;;;18.17;16.37;;;17.80;99.90;;;;;;6263595;22;20181;-87
2021/07/24 04:55:46;;;;;;;22.30;16.40;;;18.00;99.90;;;;;;6264023;22;20427;-87
2021/07/24 04:58:11;;;;;;;16.97;15.23;;;18.10;99.90;;;;;;6264117;22;21156;-87
2021/07/24 05:00:45;;;;;;;16.87;15.17;;;18.20;99.90;;;;;;6264320;22;20486;-87
2021/07/24 05:03:12;;;;;;;20.43;17.27;;;18.30;99.90;;;;;;6264590;22;20161;-87
2021/07/24 05:05:39;;;;;;;17.37;15.60;;;18.30;99.90;;;;;;6264503;22;20475;-87
2021/07/24 05:08:07;;;;;;;17.10;15.40;;;18.10;99.90;;;;;;6264067;22;20609;-88
2021/07/24 05:10:33;;;;;;;17.40;15.80;;;18.00;99.90;;;;;;6264340;22;20414;-88
2021/07/24 05:12:58;;;;;;;19.23;15.70;;;17.90;99.90;;;;;;6265104;22;20480;-88
2021/07/24 05:15:24;;;;;;;16.90;15.20;;;17.80;99.90;;;;;;6264926;22;20180;-86
2021/07/24 05:17:50;;;;;;;15.83;14.23;;;17.90;99.90;;;;;;6265001;22;20170;-87
2021/07/24 05:20:17;;;;;;;16.83;14.93;;;18.20;99.90;;;;;;6264251;22;20178;-86
2021/07/24 05:22:43;;;;;;;17.50;15.70;;;18.30;99.90;;;;;;6263901;22;20677;-86
2021/07/24 05:25:09;;;;;;;17.87;15.70;;;18.50;99.90;;;;;;6265008;22;20415;-86
2021/07/24 05:27:35;;;;;;;16.93;15.33;;;18.60;99.90;;;;;;6264850;22;20278;-87
2021/07/24 05:30:01;;;;;;;17.27;15.63;;;18.60;99.90;;;;;;6263228;22;20965;-88
2021/07/24 05:32:26;;;;;;;16.57;14.97;;;18.70;99.90;;;;;;6264955;22;20207;-91
2021/07/24 05:34:52;;;;;;;18.80;16.87;;;18.60;99.90;;;;;;6264330;22;20166;-87
2021/07/24 05:37:18;;;;;;;17.93;16.03;;;18.40;99.90;;;;;;6264900;22;20154;-87
2021/07/24 05:39:43;;;;;;;18.37;16.60;;;18.50;99.90;;;;;;6263963;22;20196;-87
2021/07/24 05:42:09;;;;;;;18.83;17.03;;;18.60;99.90;;;;;;6263499;22;20469;-87
2021/07/24 05:45:16;;;;;;;19.13;16.07;;;18.50;99.90;;;;;;6263990;22;20438;-87
2021/07/24 05:47:42;;;;;;;18.07;16.37;;;18.80;99.90;;;;;;6263129;22;20188;-87
2021/07/24 05:50:08;;;;;;;16.47;14.87;;;18.90;99.90;;;;;;6265158;22;21008;-87
2021/07/24 05:52:34;;;;;;;17.33;15.57;;;18.80;99.90;;;;;;6265309;22;21470;-87
2021/07/24 05:54:59;;;;;;;18.23;16.43;;;18.90;99.90;;;;;;6263236;22;20895;-86
2021/07/24 05:57:25;;;;;;;18.50;16.80;;;18.80;99.90;;;;;;6264699;22;20244;-86
2021/07/24 05:59:51;;;;;;;20.17;16.90;;;18.80;99.90;;;;;;6263683;22;20187;-87
2021/07/24 06:02:17;;;;;;;17.17;15.43;;;18.90;99.90;;;;;;6265425;22;20245;-87
2021/07/24 06:04:43;;;;;;;17.67;15.93;;;18.90;99.90;;;;;;6262691;22;20241;-86
2021/07/24 06:07:10;;;;;;;19.30;17.43;;;18.80;99.90;;;;;;6265213;22;20531;-86
2021/07/24 06:09:35;;;;;;;20.00;17.90;;;19.00;99.90;;;;;;6263212;22;20959;-89
2021/07/24 06:12:01;;;;;;;19.53;17.53;;;18.80;99.90;;;;;;6264667;22;20917;-86
2021/07/24 06:14:27;;;;;;;20.20;18.10;;;18.90;99.90;;;;;;6263550;22;20595;-86
2021/07/24 06:16:53;;;;;;;18.40;16.63;;;18.90;99.90;;;;;;6264514;22;20165;-86
2021/07/24 06:19:19;;;;;;;18.37;16.67;;;18.90;99.90;;;;;;6263506;22;20162;-86
2021/07/24 06:21:46;;;;;;;18.73;16.67;;;19.00;99.90;;;;;;6263165;22;20966;-86
2021/07/24 06:24:13;;;;;;;18.47;16.67;;;19.10;99.90;;;;;;6263999;22;20404;-86
2021/07/24 06:26:39;;;;;;;18.67;16.70;;;19.00;99.90;;;;;;6263847;22;20495;-87
2021/07/24 06:29:06;;;;;;;18.40;16.60;;;19.10;99.90;;;;;;6264986;22;20905;-86
2021/07/24 06:31:32;;;;;;;18.30;16.47;;;19.20;99.90;;;;;;6263817;22;20409;-86
2021/07/24 06:33:57;;;;;;;17.83;16.10;;;19.40;99.90;;;;;;6263767;22;20450;-87
2021/07/24 06:36:23;;;;;;;18.63;16.63;;;19.50;99.90;;;;;;6263646;22;20488;-89
2021/07/24 06:38:49;;;;;;;18.73;16.77;;;19.60;99.90;;;;;;6263183;22;20212;-87
2021/07/24 06:41:14;;;;;;;17.53;15.73;;;19.70;99.90;;;;;;6263551;22;20553;-87
2021/07/24 06:43:40;;;;;;;17.67;15.97;;;19.60;99.90;;;;;;6264374;22;20170;-87
2021/07/24 06:46:13;;;;;;;17.67;15.97;;;19.70;99.90;;;;;;6263579;22;20608;-89
2021/07/24 06:48:45;;;;;;;18.23;16.33;;;19.90;99.90;;;;;;6263788;22;20158;-89
2021/07/24 06:51:10;;;;;;;16.60;15.00;;;20.00;99.90;;;;;;6237868;22;20400;-89
2021/07/24 06:53:36;;;;;;;16.47;14.77;;;20.10;99.90;;;;;;6263331;22;20879;-87
2021/07/24 06:56:03;;;;;;;19.23;17.37;;;20.30;99.90;;;;;;6263449;22;20166;-88
2021/07/24 06:58:29;;;;;;;17.17;15.47;;;20.40;99.90;;;;;;6263884;22;20171;-87
2021/07/24 07:00:56;;;;;;;17.03;15.33;;;20.40;99.90;;;;;;6264584;22;20515;-88
2021/07/24 07:03:21;;;;;;;17.63;15.70;;;20.20;99.90;;;;;;6265025;22;20405;-90
2021/07/24 07:05:49;;;;;;;18.23;15.90;;;20.30;99.90;;;;;;6258853;22;20859;-88
2021/07/24 07:08:15;;;;;;;17.20;14.60;;;20.40;99.90;;;;;;6263148;22;20487;-88
2021/07/24 07:10:40;;;;;;;17.07;15.37;;;20.50;99.90;;;;;;6263534;22;20392;-87
2021/07/24 07:13:06;;;;;;;16.60;15.00;;;20.60;99.90;;;;;;6262475;22;20934;-89
2021/07/24 07:15:32;;;;;;;18.93;15.73;;;20.70;99.90;;;;;;6263047;22;20158;-87
2021/07/24 07:17:58;;;;;;;16.77;15.20;;;20.40;99.90;;;;;;6261542;22;20249;-86
2021/07/24 07:20:24;;;;;;;17.60;15.80;;;20.20;99.90;;;;;;6262226;22;20464;-87
2021/07/24 07:22:50;;;;;;;18.93;16.10;;;20.00;99.90;;;;;;6263085;22;20493;-88
2021/07/24 07:25:16;;;;;;;19.10;16.90;;;19.90;99.90;;;;;;6237347;22;20389;-87
2021/07/24 07:27:43;;;;;;;16.70;15.10;;;20.00;99.90;;;;;;6262563;22;20454;-87
2021/07/24 07:30:11;;;;;;;16.77;15.07;;;20.00;99.90;;;;;;6261823;22;20391;-87
2021/07/24 07:32:37;;;;;;;18.07;15.43;;;20.10;99.90;;;;;;6264183;22;20381;-88
2021/07/24 07:35:04;;;;;;;17.33;15.67;;;20.10;99.90;;;;;;6262458;22;20380;-87
2021/07/24 07:40:20;;;;;;;16.93;15.30;;;20.40;99.90;;;;;;6264110;22;20427;-87
2021/07/24 07:42:46;;;;;;;16.67;14.57;;;20.60;99.90;;;;;;6263475;22;20404;-89
2021/07/24 07:45:12;;;;;;;16.13;14.43;;;20.80;99.90;;;;;;6237073;22;20393;-87
2021/07/24 07:47:38;;;;;;;16.20;14.20;;;21.00;99.90;;;;;;6263094;22;20215;-86
2021/07/24 07:50:05;;;;;;;17.57;12.53;;;21.10;99.90;;;;;;6263617;22;20486;-88
2021/07/24 07:52:31;;;;;;;15.77;14.00;;;21.20;99.90;;;;;;6263466;22;20436;-86
2021/07/24 07:54:57;;;;;;;15.53;13.93;;;21.30;99.90;;;;;;6263458;22;20396;-87
2021/07/24 07:57:25;;;;;;;15.70;14.10;;;21.30;99.90;;;;;;6262518;22;20385;-87
2021/07/24 07:59:57;;;;;;;16.13;13.90;;;21.20;99.90;;;;;;6263162;22;20478;-88
2021/07/24 08:02:23;;;;;;;15.87;14.40;;;21.10;99.90;;;;;;6264332;22;20401;-88
2021/07/24 08:04:49;;;;;;;15.47;14.07;;;21.10;99.90;;;;;;6261644;22;20463;-87
2021/07/24 08:07:16;;;;;;;16.50;14.77;;;21.10;99.90;;;;;;6262985;22;20178;-86
2021/07/24 08:09:42;;;;;;;17.43;14.00;;;21.00;99.90;;;;;;6262450;22;20150;-89
2021/07/24 08:12:08;;;;;;;18.07;14.33;;;21.00;99.90;;;;;;6262498;22;20720;-88
2021/07/24 08:17:43;;;;;;;16.10;14.40;;;21.10;99.90;;;;;;6265468;22;20293;-90
2021/07/24 08:20:10;;;;;;;15.30;13.77;;;21.20;99.90;;;;;;6231705;22;20440;-89
2021/07/24 08:22:36;;;;;;;16.57;14.90;;;21.40;99.90;;;;;;6238148;22;20396;-90
2021/07/24 08:25:09;;;;;;;19.43;15.53;;;21.50;99.90;;;;;;6237021;22;20408;-89
2021/07/24 08:27:35;;;;;;;17.47;15.67;;;21.30;99.90;;;;;;6237513;22;20404;-89
2021/07/24 08:56:25;;;;;;;14.47;13.03;;;23.70;99.90;;;;;;6229485;22;21007;-94
2021/07/24 08:58:55;;;;;;;14.27;12.97;;;23.80;99.90;;;;;;6238303;22;20393;-92
2021/07/24 09:01:22;;;;;;;15.87;14.17;;;23.70;99.90;;;;;;6239882;22;20468;-91
2021/07/24 09:03:48;;;;;;;15.70;14.17;;;23.50;99.90;;;;;;6237330;22;20865;-91
2021/07/24 09:06:22;;;;;;;14.30;13.00;;;23.50;99.90;;;;;;6236492;22;20614;-91
2021/07/24 09:08:56;;;;;;;13.80;12.50;;;23.50;99.90;;;;;;6235954;22;20426;-92
2021/07/24 09:11:22;;;;;;;15.27;13.67;;;23.50;99.90;;;;;;6236401;22;20813;-90
2021/07/24 09:13:48;;;;;;;15.63;14.07;;;23.50;99.90;;;;;;6238157;22;20404;-92
2021/07/24 09:16:14;;;;;;;14.37;12.83;;;23.50;99.90;;;;;;6237836;22;20198;-94
2021/07/24 09:18:41;;;;;;;17.20;13.70;;;23.50;99.90;;;;;;6241015;22;20406;-93
2021/07/24 09:21:07;;;;;;;15.83;14.20;;;23.80;99.90;;;;;;6268663;22;20181;-92
2021/07/24 09:23:39;;;;;;;14.47;13.10;;;23.90;99.90;;;;;;6244288;22;20848;-94
2021/07/24 09:26:05;;;;;;;15.27;13.70;;;23.70;99.90;;;;;;6240751;22;20224;-93
2021/07/24 09:28:34;;;;;;;14.60;13.30;;;23.50;99.90;;;;;;6240329;22;20401;-92
2021/07/24 09:31:20;;;;;;;15.83;14.23;;;23.50;99.90;;;;;;6241809;22;20403;-96
2021/07/24 09:33:50;;;;;;;15.73;13.43;;;23.70;99.90;;;;;;6250306;22;20807;-96
2021/07/24 09:36:33;;;;;;;15.80;14.30;;;24.40;99.90;;;;;;6249900;22;20393;-95
2021/07/24 09:39:11;;;;;;;15.00;13.50;;;24.70;99.90;;;;;;6249255;22;20393;-96
2021/07/24 09:41:39;;;;;;;14.80;13.30;;;25.20;99.90;;;;;;6263958;22;20436;-96
2021/07/24 09:44:05;;;;;;;15.23;13.83;;;25.80;99.90;;;;;;6258789;22;20393;-96
2021/07/24 09:46:31;;;;;;;13.80;12.50;;;26.00;99.90;;;;;;6247363;22;20933;-96
2021/07/24 09:49:08;;;;;;;15.83;13.93;;;26.00;99.90;;;;;;6244312;22;20553;-93
2021/07/24 09:51:39;;;;;;;15.70;13.47;;;25.70;99.90;;;;;;6240328;22;20166;-90
2021/07/24 09:54:05;;;;;;;15.80;13.37;;;25.40;99.90;;;;;;6238615;22;20403;-90
2021/07/24 09:56:41;;;;;;;14.67;13.40;;;25.30;99.90;;;;;;6238521;22;20839;-89
2021/07/24 09:59:19;;;;;;;15.30;13.70;;;25.40;99.90;;;;;;6238844;22;20393;-91
2021/07/24 10:01:53;;;;;;;14.50;13.00;;;25.30;99.90;;;;;;6239463;22;20448;-90
2021/07/24 10:04:38;;;;;;;16.17;14.57;;;25.20;99.90;;;;;;6239262;22;20428;-90
2021/07/24 10:07:05;;;;;;;15.70;13.20;;;25.10;99.90;;;;;;6240463;22;20722;-93
2021/07/24 10:09:51;;;;;;;14.63;13.33;;;25.50;99.90;;;;;;6240232;22;20718;-89
2021/07/24 10:12:52;;;;;;;14.70;13.13;;;26.10;99.90;;;;;;6233497;22;20495;-89
2021/07/24 10:15:29;;;;;;;13.73;12.40;;;26.50;99.90;;;;;;6210296;22;20416;-93
2021/07/24 10:17:56;;;;;;;14.50;13.00;;;26.90;99.90;;;;;;6267269;22;20818;-92
2021/07/24 10:20:36;;;;;;;13.70;12.50;;;26.70;99.90;;;;;;6239232;22;20432;-95
2021/07/24 10:26:13;;;;;;;15.53;13.27;;;27.00;99.90;;;;;;6250275;22;20459;-89
2021/07/24 10:29:05;;;;;;;15.07;12.73;;;26.90;99.90;;;;;;6235447;22;20397;-90
2021/07/24 10:31:36;;;;;;;13.43;11.60;;;26.90;99.90;;;;;;6220339;22;20488;-89
2021/07/24 10:34:05;;;;;;;14.50;13.13;;;27.50;99.50;;;;;;6239528;22;20412;-89
2021/07/24 10:36:37;;;;;;;13.03;11.80;;;27.70;98.30;;;;;;6237971;22;20407;-91
2021/07/24 10:39:17;;;;;;;12.00;10.90;;;27.50;96.00;;;;;;6264048;22;20405;-89
2021/07/24 10:41:52;;;;;;;12.67;11.43;;;27.40;94.90;;;;;;6239321;22;20440;-90
2021/07/24 10:44:24;;;;;;;11.63;10.53;;;27.20;96.00;;;;;;6240118;22;20483;-89
2021/07/24 10:46:49;;;;;;;13.30;11.10;;;26.90;96.70;;;;;;6239906;22;20455;-89
2021/07/24 10:49:33;;;;;;;12.70;11.60;;;26.70;95.80;;;;;;6239119;22;20762;-91
2021/07/24 10:52:00;;;;;;;13.73;12.40;;;26.50;97.40;;;;;;6238372;22;20550;-90
2021/07/24 10:54:27;;;;;;;12.40;11.10;;;26.70;97.80;;;;;;6238685;22;20381;-90
2021/07/24 10:56:54;;;;;;;11.60;10.50;;;26.90;96.40;;;;;;6238441;22;20427;-90
2021/07/24 10:59:29;;;;;;;11.20;10.10;;;27.00;95.60;;;;;;6238538;22;20827;-90
2021/07/24 11:01:56;;;;;;;10.60;9.60;;;27.50;95.40;;;;;;6239526;22;20470;-89
2021/07/24 11:04:41;;;;;;;11.53;10.50;;;27.80;93.50;;;;;;6238906;22;20405;-89
2021/07/24 11:07:13;;;;;;;10.60;9.53;;;27.80;94.60;;;;;;6238690;22;20411;-89
2021/07/24 11:09:43;;;;;;;12.80;11.43;;;28.10;95.30;;;;;;6239078;22;20649;-89
2021/07/24 11:12:14;;;;;;;11.33;10.23;;;27.80;95.40;;;;;;6238201;22;21105;-89
2021/07/24 11:14:41;;;;;;;11.70;10.67;;;27.70;95.10;;;;;;6239041;22;20411;-89
2021/07/24 11:17:07;;;;;;;12.40;11.20;;;27.60;95.10;;;;;;6238971;22;20400;-88
2021/07/24 11:19:34;;;;;;;10.83;9.83;;;27.60;95.40;;;;;;6236091;22;20883;-88
2021/07/24 11:22:22;;;;;;;11.70;9.73;;;27.10;95.30;;;;;;6237547;22;20162;-88
2021/07/24 11:24:51;;;;;;;10.90;9.80;;;26.60;95.50;;;;;;6238610;22;20713;-89
2021/07/24 11:27:56;;;;;;;10.53;9.63;;;26.30;96.40;;;;;;6238114;22;20396;-89
2021/07/24 12:20:13;;;;;;;8.07;7.27;;;28.70;91.20;;;;;;6241939;22;20440;-92
2021/07/24 12:40:27;;;;;;;8.43;7.73;;;28.40;88.70;;;;;;6267773;22;21140;-95
2021/07/24 13:01:44;;;;;;;7.83;7.13;;;27.30;88.80;;;;;;6273343;22;20835;-91
2021/07/24 13:04:09;;;;;;;8.60;7.67;;;27.00;90.20;;;;;;6259694;22;20479;-92
2021/07/24 13:06:52;;;;;;;8.60;7.77;;;26.90;90.30;;;;;;6240122;22;20903;-91
2021/07/24 13:09:19;;;;;;;8.40;7.60;;;26.60;90.50;;;;;;6239618;22;20199;-91
2021/07/24 13:11:54;;;;;;;8.80;7.97;;;26.50;90.80;;;;;;6238868;22;20397;-91
2021/07/24 13:14:21;;;;;;;7.90;6.90;;;26.50;91.50;;;;;;6240874;22;20463;-92
2021/07/24 13:16:47;;;;;;;9.57;8.00;;;26.60;91.50;;;;;;6240820;22;20441;-91
2021/07/24 13:19:14;;;;;;;8.10;7.37;;;26.60;91.40;;;;;;6240011;22;20487;-92
2021/07/24 13:21:42;;;;;;;8.33;7.57;;;26.80;91.30;;;;;;6238039;22;20197;-91
2021/07/24 13:24:14;;;;;;;8.30;7.50;;;26.80;91.40;;;;;;6237053;22;20392;-89
2021/07/24 13:29:23;;;;;;;9.70;7.13;;;26.90;91.40;;;;;;6265069;22;20447;-92
2021/07/24 13:31:53;;;;;;;8.53;7.70;;;27.00;91.10;;;;;;6238409;22;20397;-91
2021/07/24 13:34:21;;;;;;;8.77;7.97;;;27.00;91.40;;;;;;6238082;22;20465;-90
2021/07/24 13:37:22;;;;;;;10.70;8.20;;;27.00;91.40;;;;;;6236561;22;20404;-90
2021/07/24 13:39:50;;;;;;;10.23;8.60;;;27.30;91.60;;;;;;6261630;22;20476;-90
2021/07/24 13:42:30;;;;;;;7.83;7.20;;;27.50;90.40;;;;;;6237448;22;20428;-89
2021/07/24 13:48:02;;;;;;;9.03;8.23;;;28.60;89.50;;;;;;6265683;22;20419;-89
2021/07/24 13:50:28;;;;;;;9.27;8.37;;;28.80;88.20;;;;;;6237418;22;20401;-89
2021/07/24 13:53:03;;;;;;;8.90;7.53;;;29.30;85.50;;;;;;6236525;22;20420;-90
2021/07/24 13:55:49;;;;;;;9.07;8.20;;;31.50;82.90;;;;;;6220815;22;20404;-90
2021/07/24 13:58:14;;;;;;;9.10;7.97;;;33.60;73.90;;;;;;6237905;22;20437;-90
2021/07/24 14:00:40;;;;;;;8.50;7.63;;;33.60;69.50;;;;;;6236587;22;20444;-89
2021/07/24 14:03:15;;;;;;;8.00;7.20;;;34.60;67.20;;;;;;6238016;22;20170;-90
2021/07/24 14:05:59;;;;;;;8.23;7.53;;;34.80;62.20;;;;;;6214484;22;20178;-90
2021/07/24 14:08:25;;;;;;;7.67;7.07;;;34.30;61.70;;;;;;6263925;22;20393;-90
2021/07/24 14:10:51;;;;;;;7.67;7.07;;;35.40;60.00;;;;;;6237580;22;20881;-89
2021/07/24 14:13:19;;;;;;;8.67;7.77;;;34.00;59.80;;;;;;6238514;22;20170;-89
2021/07/24 14:15:45;;;;;;;8.00;7.30;;;32.10;62.20;;;;;;6240249;22;20163;-89
2021/07/24 14:18:10;;;;;;;8.50;7.70;;;31.00;67.40;;;;;;6266153;22;20392;-90
2021/07/24 14:21:02;;;;;;;9.27;8.27;;;30.20;70.00;;;;;;6233598;22;20190;-90
2021/07/24 14:23:27;;;;;;;8.00;7.30;;;30.60;69.80;;;;;;6238493;22;20164;-89
2021/07/24 14:25:53;;;;;;;8.00;7.20;;;30.80;67.80;;;;;;6237085;22;20520;-90
2021/07/24 14:28:19;;;;;;;9.17;8.20;;;30.20;70.00;;;;;;6239754;22;20924;-91
2021/07/24 14:30:44;;;;;;;8.07;7.27;;;30.00;72.70;;;;;;6238120;22;20173;-88
2021/07/24 14:33:14;;;;;;;8.07;7.37;;;31.00;69.40;;;;;;6235591;22;20162;-90
2021/07/24 14:35:53;;;;;;;7.70;7.10;;;34.40;63.80;;;;;;6235638;22;20165;-89
2021/07/24 14:38:19;;;;;;;7.00;6.40;;;37.40;54.00;;;;;;6236574;22;20868;-90
2021/07/24 14:40:57;;;;;;;7.53;6.80;;;39.10;50.80;;;;;;6236419;22;20447;-90
2021/07/24 14:46:20;;;;;;;6.85;6.25;;;40.50;46.00;;;;;;6264344;22;20498;-91
2021/07/24 14:48:48;;;;;;;8.10;7.40;;;41.80;42.60;;;;;;6240337;22;20168;-90
2021/07/24 14:51:20;;;;;;;7.65;6.95;;;40.30;41.10;;;;;;6236439;22;20717;-90
2021/07/24 14:53:50;;;;;;;7.87;7.00;;;39.30;43.40;;;;;;6265758;22;20185;-90
2021/07/24 14:56:17;;;;;;;7.23;6.63;;;39.00;43.20;;;;;;6239642;22;20251;-89
2021/07/24 14:58:49;;;;;;;8.02;7.43;;;39.90;42.90;;;;;;6249236;22;20189;-92
2021/07/24 15:01:18;;;;;;;7.43;6.82;;;41.30;39.90;;;;;;6264259;22;20150;-91
2021/07/24 15:07:43;;;;;;;7.70;7.00;;;38.90;41.00;;;;;;6264735;22;20627;-89